createdAt,value
2018-07-25T00:02:26.505Z,50.60
2018-07-25T00:07:30.104Z,50.60
2018-07-25T00:12:33.665Z,50.90
2018-07-25T00:17:37.265Z,50.90
2018-07-25T00:22:40.832Z,51.50
2018-07-25T00:27:44.398Z,51.80
2018-07-25T00:32:47.976Z,51.80
2018-07-25T00:37:51.640Z,51.90
2018-07-25T00:42:55.277Z,52.40
2018-07-25T00:47:59.198Z,52.70
2018-07-25T00:58:06.310Z,53.00
2018-07-25T01:03:10.956Z,53.20
2018-07-25T01:08:14.570Z,53.60
2018-07-25T01:13:18.124Z,54.50
2018-07-25T01:18:21.729Z,54.00
2018-07-25T01:23:25.315Z,54.10
2018-07-25T01:28:28.912Z,53.90
2018-07-25T01:33:32.534Z,54.00
2018-07-25T01:38:36.124Z,54.10
2018-07-25T01:43:39.727Z,54.60
2018-07-25T01:48:43.376Z,54.40
2018-07-25T01:53:46.953Z,54.80
2018-07-25T01:58:50.606Z,54.90
2018-07-25T02:03:54.168Z,55.20
2018-07-25T02:08:58.131Z,56.00
2018-07-25T02:14:01.698Z,55.50
2018-07-25T02:19:05.298Z,55.60
2018-07-25T02:24:08.876Z,55.70
2018-07-25T02:29:12.505Z,56.10
2018-07-25T02:34:20.734Z,56.30
2018-07-25T02:39:24.284Z,56.40
2018-07-25T02:44:27.862Z,56.60
2018-07-25T02:49:31.418Z,56.80
2018-07-25T02:54:35.034Z,56.90
2018-07-25T02:59:38.607Z,57.00
2018-07-25T03:04:42.182Z,57.50
2018-07-25T03:09:45.728Z,57.90
2018-07-25T03:14:49.292Z,57.90
2018-07-25T03:19:52.864Z,58.00
2018-07-25T03:24:56.397Z,58.20
2018-07-25T03:29:59.995Z,58.60
2018-07-25T03:35:04.392Z,59.00
2018-07-25T03:40:08.311Z,58.60
2018-07-25T03:45:11.926Z,59.00
2018-07-25T03:50:15.470Z,59.20
2018-07-25T03:55:19.066Z,59.40
2018-07-25T04:00:22.623Z,59.20
2018-07-25T04:05:26.155Z,59.50
2018-07-25T04:10:31.131Z,60.00
2018-07-25T04:15:34.670Z,61.90
2018-07-25T04:20:38.219Z,60.70
2018-07-25T04:25:41.780Z,60.80
2018-07-25T04:30:45.403Z,60.70
2018-07-25T04:35:49.027Z,61.20
2018-07-25T04:40:52.631Z,60.90
2018-07-25T04:45:56.309Z,61.60
2018-07-25T04:50:59.894Z,61.50
2018-07-25T04:56:03.440Z,61.90
2018-07-25T05:01:07.082Z,62.00
2018-07-25T05:06:10.616Z,61.60
2018-07-25T05:11:14.159Z,62.20
2018-07-25T05:16:18.819Z,62.60
2018-07-25T05:21:22.440Z,62.90
2018-07-25T05:26:25.991Z,63.50
2018-07-25T05:31:29.710Z,63.20
2018-07-25T05:36:33.294Z,64.20
2018-07-25T05:41:37.092Z,63.70
2018-07-25T05:46:40.649Z,63.00
2018-07-25T05:51:44.261Z,62.20
2018-07-25T05:56:47.806Z,62.10
2018-07-25T06:01:51.413Z,61.40
2018-07-25T06:06:54.987Z,61.00
2018-07-25T06:11:58.577Z,60.90
2018-07-25T06:17:02.184Z,60.40
2018-07-25T06:22:06.096Z,59.70
2018-07-25T06:27:09.672Z,59.20
2018-07-25T06:32:13.528Z,58.60
2018-07-25T06:37:17.071Z,58.50
2018-07-25T06:42:20.660Z,58.50
2018-07-25T06:52:27.645Z,57.50
2018-07-25T06:57:31.263Z,56.80
2018-07-25T07:02:34.943Z,56.80
2018-07-25T07:07:38.854Z,56.30
2018-07-25T07:12:42.414Z,56.00
2018-07-25T07:17:46.055Z,57.20
2018-07-25T07:22:49.757Z,58.30
2018-07-25T07:27:53.349Z,59.10
2018-07-25T07:32:57.089Z,59.00
2018-07-25T07:38:00.816Z,58.90
2018-07-25T07:43:04.455Z,58.70
2018-07-25T07:48:08.106Z,58.30
2018-07-25T07:53:11.696Z,58.40
2018-07-25T07:58:15.304Z,58.20
2018-07-25T08:03:18.915Z,57.80
2018-07-25T08:13:25.863Z,56.30
2018-07-25T08:18:29.458Z,55.90
2018-07-25T08:23:33.091Z,55.70
2018-07-25T08:28:36.708Z,55.00
2018-07-25T08:33:40.303Z,53.70
2018-07-25T08:38:44.768Z,53.30
2018-07-25T08:43:48.358Z,53.20
2018-07-25T08:48:51.929Z,52.60
2018-07-25T08:53:55.819Z,51.10
2018-07-25T08:59:00.274Z,50.00
2018-07-25T09:04:03.961Z,48.90
2018-07-25T09:09:09.740Z,48.30
2018-07-25T09:14:13.286Z,47.30
2018-07-25T09:19:16.856Z,47.00
2018-07-25T09:24:20.469Z,45.50
2018-07-25T09:29:24.063Z,44.30
2018-07-25T09:34:27.686Z,43.80
2018-07-25T09:39:31.254Z,42.40
2018-07-25T09:44:34.869Z,42.00
2018-07-25T09:49:38.455Z,42.00
2018-07-25T09:54:42.155Z,41.40
2018-07-25T09:59:45.730Z,40.70
2018-07-25T10:04:49.314Z,39.90
2018-07-25T10:09:52.986Z,39.80
2018-07-25T10:14:57.053Z,39.90
2018-07-25T10:20:01.624Z,39.50
2018-07-25T10:25:05.443Z,38.20
2018-07-25T10:30:09.032Z,38.40
2018-07-25T10:35:12.591Z,38.20
2018-07-25T10:45:20.307Z,38.30
2018-07-25T10:50:24.156Z,38.80
2018-07-25T10:55:27.754Z,39.10
2018-07-25T11:00:31.326Z,39.10
2018-07-25T11:05:35.364Z,39.30
2018-07-25T11:10:38.943Z,37.00
2018-07-25T11:15:45.177Z,38.30
2018-07-25T11:20:49.161Z,38.40
2018-07-25T11:25:53.074Z,37.00
2018-07-25T11:30:57.899Z,35.80
2018-07-25T11:36:01.431Z,35.10
2018-07-25T11:41:05.305Z,33.30
2018-07-25T11:46:09.209Z,31.90
2018-07-25T11:51:13.064Z,31.60
2018-07-25T11:56:16.694Z,31.60
2018-07-25T12:01:20.382Z,31.60
2018-07-25T12:06:24.093Z,30.70
2018-07-25T12:11:28.623Z,31.50
2018-07-25T12:16:32.227Z,30.10
2018-07-25T12:21:36.473Z,29.50
2018-07-25T12:26:40.115Z,30.30
2018-07-25T12:31:44.040Z,31.50
2018-07-25T12:36:48.046Z,31.30
2018-07-25T12:41:54.549Z,31.90
2018-07-25T12:46:58.932Z,32.20
2018-07-25T12:52:02.538Z,32.70
2018-07-25T12:57:06.238Z,32.10
2018-07-25T13:02:10.268Z,31.90
2018-07-25T13:07:14.641Z,31.40
2018-07-25T13:12:18.598Z,31.80
2018-07-25T13:17:22.148Z,31.60
2018-07-25T13:22:25.698Z,31.20
2018-07-25T13:27:31.422Z,30.00
2018-07-25T13:32:35.034Z,30.00
2018-07-25T13:37:38.898Z,30.30
2018-07-25T13:42:42.558Z,30.10
2018-07-25T13:47:46.338Z,29.80
2018-07-25T13:52:50.211Z,29.50
2018-07-25T13:57:53.988Z,29.50
2018-07-25T14:02:57.970Z,29.80
2018-07-25T14:13:21.327Z,28.20
2018-07-25T14:18:25.589Z,29.40
2018-07-25T14:23:29.522Z,27.90
2018-07-25T14:28:42.116Z,26.90
2018-07-25T14:33:46.656Z,27.50
2018-07-25T14:38:50.186Z,28.40
2018-07-25T14:43:54.352Z,27.70
2018-07-25T14:48:57.940Z,27.60
2018-07-25T14:54:01.820Z,27.80
2018-07-25T14:59:05.440Z,28.10
2018-07-25T15:04:09.301Z,28.50
2018-07-25T15:09:13.086Z,28.40
2018-07-25T15:14:16.720Z,27.00
2018-07-25T15:19:20.297Z,26.50
2018-07-25T15:24:23.851Z,25.30
2018-07-25T15:29:27.537Z,25.50
2018-07-25T15:34:32.017Z,25.20
2018-07-25T15:39:35.611Z,25.60
2018-07-25T15:44:39.202Z,25.30
2018-07-25T15:49:42.823Z,24.70
2018-07-25T15:54:46.436Z,24.50
2018-07-25T15:59:50.072Z,24.50
2018-07-25T16:04:53.759Z,24.90
2018-07-25T16:09:58.184Z,23.90
2018-07-25T16:15:01.766Z,25.90
2018-07-25T16:20:09.020Z,25.60
2018-07-25T16:25:12.620Z,25.50
2018-07-25T16:30:16.187Z,25.80
2018-07-25T16:35:20.027Z,26.10
2018-07-25T16:40:23.639Z,25.50
2018-07-25T16:45:27.969Z,25.20
2018-07-25T16:50:31.513Z,25.20
2018-07-25T16:55:35.086Z,26.40
2018-07-25T17:00:38.659Z,26.60
2018-07-25T17:05:42.943Z,26.80
2018-07-25T17:10:46.514Z,27.00
2018-07-25T17:15:50.123Z,26.90
2018-07-25T17:20:54.042Z,27.20
2018-07-25T17:25:57.602Z,27.50
2018-07-25T17:31:01.154Z,27.40
2018-07-25T17:36:04.780Z,27.20
2018-07-25T17:41:08.370Z,27.30
2018-07-25T17:46:12.218Z,27.30
2018-07-25T17:51:16.566Z,27.60
2018-07-25T17:56:20.761Z,28.40
2018-07-25T18:01:24.348Z,28.10
2018-07-25T18:06:28.209Z,28.50
2018-07-25T18:11:36.039Z,28.60
2018-07-25T18:16:40.368Z,29.00
2018-07-25T18:21:43.947Z,29.60
2018-07-25T18:26:47.519Z,30.00
2018-07-25T18:31:51.464Z,30.60
2018-07-25T18:36:55.763Z,30.10
2018-07-25T18:41:59.487Z,30.00
2018-07-25T18:47:03.573Z,30.60
2018-07-25T18:52:08.044Z,32.40
2018-07-25T18:57:11.587Z,31.80
2018-07-25T19:02:15.238Z,32.20
2018-07-25T19:07:18.790Z,32.60
2018-07-25T19:12:22.882Z,34.40
2018-07-25T19:17:26.872Z,34.50
2018-07-25T19:22:30.408Z,34.80
2018-07-25T19:27:33.991Z,35.40
2018-07-25T19:32:38.048Z,35.70
2018-07-25T19:37:41.910Z,36.20
2018-07-25T19:42:45.591Z,36.60
2018-07-25T19:47:49.172Z,35.50
2018-07-25T19:52:52.683Z,36.30
2018-07-25T19:57:56.238Z,36.80
2018-07-25T20:03:00.011Z,37.20
2018-07-25T20:08:03.757Z,37.30
2018-07-25T20:13:07.342Z,37.80
2018-07-25T20:18:10.872Z,38.20
2018-07-25T20:23:14.727Z,39.30
2018-07-25T20:28:20.007Z,40.20
2018-07-25T20:33:23.542Z,40.20
2018-07-25T20:38:28.841Z,40.30
2018-07-25T20:43:33.129Z,39.80
2018-07-25T20:48:36.707Z,39.60
2018-07-25T20:53:40.319Z,39.90
2018-07-25T20:58:44.240Z,40.50
2018-07-25T21:03:47.840Z,41.10
2018-07-25T21:08:51.915Z,41.60
2018-07-25T21:13:55.506Z,41.90
2018-07-25T21:18:59.021Z,41.60
2018-07-25T21:24:02.656Z,41.70
2018-07-25T21:29:06.262Z,42.50
2018-07-25T21:34:09.837Z,42.70
2018-07-25T21:39:14.207Z,42.70
2018-07-25T21:44:17.769Z,42.60
2018-07-25T21:49:21.299Z,43.70
2018-07-25T21:54:45.332Z,43.70
2018-07-25T21:59:49.369Z,43.60
2018-07-25T22:04:53.467Z,44.60
2018-07-25T22:09:57.002Z,44.20
2018-07-25T22:15:01.465Z,44.10
2018-07-25T22:20:06.956Z,44.10
2018-07-25T22:25:11.866Z,44.60
2018-07-25T22:30:15.907Z,45.10
2018-07-25T22:35:19.759Z,45.00
2018-07-25T22:45:34.153Z,45.30
2018-07-25T22:50:39.167Z,45.80
2018-07-25T22:55:42.730Z,46.30
2018-07-25T23:00:46.292Z,46.50
2018-07-25T23:05:49.832Z,46.10
2018-07-25T23:10:53.402Z,46.50
2018-07-25T23:15:56.984Z,46.40
2018-07-25T23:21:00.660Z,46.80
2018-07-25T23:26:04.526Z,46.90
2018-07-25T23:31:10.027Z,47.40
2018-07-25T23:36:14.044Z,48.00
2018-07-25T23:41:17.807Z,47.80
2018-07-25T23:46:21.394Z,48.70
2018-07-25T23:51:25.226Z,49.30
2018-07-25T23:56:28.893Z,49.60
